createdAt,value
2024-03-05T01:50:12.586Z,23.60
2024-03-05T01:52:42.092Z,23.70
2024-03-05T01:55:15.402Z,23.90
2024-03-05T01:57:47.432Z,24.00
2024-03-05T02:00:19.419Z,23.80
2024-03-05T02:02:48.851Z,23.80
2024-03-05T02:05:19.540Z,23.90
2024-03-05T02:07:49.099Z,24.10
2024-03-05T02:10:19.133Z,24.30
2024-03-05T02:12:48.998Z,24.10
2024-03-05T02:15:18.992Z,24.10
2024-03-05T02:17:49.967Z,24.10
2024-03-05T02:20:20.506Z,24.20
2024-03-05T02:22:50.164Z,24.30
2024-03-05T02:25:19.798Z,24.40
2024-03-05T02:27:52.210Z,24.60
2024-03-05T02:30:23.072Z,24.70
2024-03-05T02:32:53.132Z,25.00
2024-03-05T02:35:22.652Z,25.10
2024-03-05T02:37:52.336Z,25.20
2024-03-05T02:40:21.909Z,25.30
2024-03-05T02:42:51.343Z,25.50
2024-03-05T02:45:21.172Z,25.50
2024-03-05T02:47:51.096Z,25.20
2024-03-05T03:44:30.980Z,26.80
2024-03-05T03:47:01.418Z,27.10
2024-03-05T03:49:30.891Z,27.10
2024-03-05T03:52:00.947Z,27.00
2024-03-05T03:54:30.376Z,26.80
2024-03-05T03:56:59.811Z,27.00
2024-03-05T03:59:30.424Z,27.30
2024-03-05T04:02:00.209Z,27.40
2024-03-05T04:04:29.780Z,27.60
2024-03-05T04:06:59.283Z,27.70
2024-03-05T04:09:30.000Z,27.80
2024-03-05T04:12:00.061Z,27.80
2024-03-05T04:14:29.881Z,27.70
2024-03-05T04:16:59.867Z,27.90
2024-03-05T04:19:29.786Z,27.90
2024-03-05T04:21:59.394Z,28.10
2024-03-05T04:24:28.841Z,28.10
2024-03-05T04:27:05.993Z,28.00
2024-03-05T04:29:36.272Z,28.20
2024-03-05T04:32:11.635Z,28.00
2024-03-05T04:34:52.806Z,28.20
2024-03-05T04:37:23.442Z,28.20
2024-03-05T04:39:53.328Z,28.30
2024-03-05T04:42:25.161Z,28.30
2024-03-05T05:40:14.959Z,28.60
2024-03-05T05:42:53.328Z,28.40
2024-03-05T05:45:24.958Z,28.50
2024-03-05T05:47:56.692Z,28.60
2024-03-05T05:50:31.429Z,28.60
2024-03-05T05:53:02.833Z,28.60
2024-03-05T05:55:33.029Z,28.60
2024-03-05T05:58:06.783Z,28.70
2024-03-05T06:00:39.829Z,28.50
2024-03-05T06:03:13.962Z,28.60
2024-03-05T06:05:45.677Z,28.60
2024-03-05T06:08:16.561Z,28.70
2024-03-05T06:10:46.200Z,28.70
2024-03-05T06:13:16.204Z,28.80
2024-03-05T06:15:46.117Z,28.70
2024-03-05T06:18:15.613Z,28.70
2024-03-05T06:20:47.002Z,28.80
2024-03-05T06:23:16.960Z,28.80
2024-03-05T06:25:46.890Z,28.80
2024-03-05T06:28:16.902Z,28.80
2024-03-05T06:30:50.032Z,28.90
2024-03-05T06:33:21.243Z,28.80
2024-03-05T06:35:51.573Z,28.80
2024-03-05T06:38:20.979Z,28.70
2024-03-05T06:40:50.518Z,28.80
2024-03-05T06:43:28.521Z,28.70
2024-03-05T06:46:00.220Z,28.60
2024-03-05T06:48:33.511Z,28.50
2024-03-05T06:51:08.752Z,28.60
2024-03-05T06:53:56.633Z,28.60
2024-03-05T06:56:45.333Z,28.70
2024-03-05T06:59:15.411Z,28.60
2024-03-05T07:01:44.905Z,28.60
2024-03-05T07:04:14.934Z,28.40
2024-03-05T07:06:45.719Z,28.40
2024-03-05T07:09:16.407Z,28.30
2024-03-05T07:11:45.957Z,28.30
2024-03-05T07:14:16.325Z,28.30
2024-03-05T07:16:47.663Z,28.20
2024-03-05T07:19:17.169Z,28.20
2024-03-05T08:29:29.666Z,25.50
2024-03-05T08:31:59.163Z,25.40
2024-03-05T08:34:28.705Z,25.30
2024-03-05T08:36:58.452Z,25.20
2024-03-05T08:39:28.229Z,25.20
2024-03-05T08:41:57.625Z,25.10
2024-03-05T08:44:27.752Z,25.00
2024-03-05T08:46:57.331Z,25.00
2024-03-05T08:49:28.409Z,24.90
2024-03-05T08:51:58.721Z,24.80
2024-03-05T08:54:28.701Z,24.80
2024-03-05T08:56:58.154Z,24.70
2024-03-05T08:59:29.429Z,24.70
2024-03-05T09:01:58.885Z,24.60
2024-03-05T09:04:28.378Z,24.60
2024-03-05T09:06:58.099Z,24.50
2024-03-05T09:09:32.918Z,24.40
2024-03-05T09:12:02.418Z,24.30
2024-03-05T09:14:31.938Z,24.30
2024-03-05T09:17:03.866Z,24.30
2024-03-05T09:19:34.235Z,24.20
2024-03-05T09:22:07.298Z,24.20
2024-03-05T09:24:38.090Z,24.10
2024-03-05T09:27:08.765Z,24.00
2024-03-05T09:29:38.246Z,24.00
2024-03-05T09:32:08.118Z,24.00
2024-03-05T09:34:37.596Z,23.80
2024-03-05T09:37:07.078Z,23.80
2024-03-05T09:39:37.405Z,23.70
2024-03-05T09:42:07.048Z,23.70
2024-03-05T09:44:37.849Z,23.70
2024-03-05T09:47:08.833Z,23.60
2024-03-05T09:49:38.399Z,23.60
2024-03-05T09:52:08.265Z,23.60
2024-03-05T09:54:39.414Z,23.50
2024-03-05T09:57:09.473Z,23.50
2024-03-05T09:59:43.099Z,23.40
2024-03-05T10:02:14.055Z,23.30
2024-03-05T10:04:44.415Z,23.30
2024-03-05T10:07:14.386Z,23.20
2024-03-05T10:09:43.817Z,23.20
2024-03-05T10:12:15.642Z,23.20
2024-03-05T10:14:45.094Z,23.10
2024-03-05T10:17:14.538Z,23.10
2024-03-05T10:19:45.629Z,23.00
2024-03-05T10:22:16.657Z,22.90
2024-03-05T10:24:46.338Z,22.80
2024-03-05T10:27:28.589Z,22.70
2024-03-05T10:29:58.425Z,22.70
2024-03-05T10:32:29.776Z,22.60
2024-03-05T10:34:59.310Z,22.40
2024-03-05T10:37:31.063Z,22.40
2024-03-05T10:40:00.661Z,22.30
2024-03-05T10:42:30.191Z,22.20
2024-03-05T10:45:00.391Z,22.20
2024-03-05T10:47:31.192Z,22.10
2024-03-05T10:50:01.825Z,22.10
2024-03-05T10:52:33.663Z,22.10
2024-03-05T10:55:06.388Z,22.10
2024-03-05T10:57:56.004Z,22.10
2024-03-05T11:00:27.404Z,22.00
2024-03-05T11:03:05.978Z,22.00
2024-03-05T11:05:36.891Z,22.00
2024-03-05T11:08:07.764Z,22.00
2024-03-05T11:10:54.890Z,21.90
2024-03-05T11:13:24.988Z,21.80
2024-03-05T11:15:54.593Z,21.80
2024-03-05T11:18:30.697Z,21.70
2024-03-05T11:21:04.292Z,21.60
2024-03-05T11:23:35.632Z,21.50
2024-03-05T11:26:09.696Z,21.50
2024-03-05T11:28:39.907Z,21.40
2024-03-05T11:31:12.891Z,21.40
2024-03-05T11:33:44.414Z,21.30
2024-03-05T11:36:20.048Z,21.30
2024-03-05T11:39:07.713Z,21.20
2024-03-05T11:41:38.427Z,21.20
2024-03-05T11:44:08.305Z,21.10
2024-03-05T11:46:52.479Z,21.10
2024-03-05T11:49:23.785Z,21.00
2024-03-05T11:51:53.437Z,21.00
2024-03-05T11:54:25.385Z,21.00
2024-03-05T11:56:59.243Z,21.00
2024-03-05T11:59:39.344Z,20.90
2024-03-05T12:02:15.667Z,20.80
2024-03-05T12:04:47.132Z,20.80
2024-03-05T12:07:16.627Z,20.80
2024-03-05T12:09:46.740Z,20.70
2024-03-05T12:12:20.122Z,20.60
2024-03-05T12:14:52.680Z,20.50
2024-03-05T12:17:22.767Z,20.50
2024-03-05T12:20:01.311Z,20.40
2024-03-05T12:22:30.982Z,20.30
2024-03-05T12:25:00.662Z,20.30
2024-03-05T12:27:30.135Z,20.30
2024-03-05T12:30:05.374Z,20.20
2024-03-05T12:32:34.947Z,20.20
2024-03-05T12:35:05.186Z,20.10
2024-03-05T12:37:36.214Z,20.10
2024-03-05T12:40:10.217Z,20.00
2024-03-05T12:42:39.836Z,19.90
2024-03-05T12:45:11.145Z,19.80
2024-03-05T12:47:41.162Z,19.80
2024-03-05T14:21:08.576Z,18.50
2024-03-05T14:23:38.418Z,18.40
2024-03-05T14:26:08.792Z,18.50
2024-03-05T14:28:38.551Z,18.50
2024-03-05T14:31:07.989Z,18.40
2024-03-05T14:33:37.463Z,18.40
2024-03-05T14:36:09.299Z,18.40
2024-03-05T14:38:40.748Z,18.30
2024-03-05T14:41:10.255Z,18.30
2024-03-05T14:43:40.968Z,18.30
2024-03-05T14:46:10.579Z,18.20
2024-03-05T14:48:42.109Z,18.20
2024-03-05T14:51:13.747Z,18.20
2024-03-05T14:53:43.193Z,18.10
2024-03-05T14:56:12.682Z,18.10
2024-03-05T14:58:42.988Z,18.10
2024-03-05T15:01:13.944Z,18.10
2024-03-05T15:03:43.370Z,18.10
2024-03-05T15:06:15.358Z,18.10
2024-03-05T15:08:46.403Z,18.00
2024-03-05T15:11:16.061Z,18.00
2024-03-05T15:13:45.764Z,18.00
2024-03-05T15:16:15.173Z,18.00
2024-03-05T15:18:44.670Z,17.90
2024-03-05T16:53:26.779Z,16.80
2024-03-05T16:55:57.514Z,16.80
2024-03-05T16:58:27.134Z,16.80
2024-03-05T17:00:59.500Z,16.70
2024-03-05T17:03:32.696Z,16.70
2024-03-05T17:06:04.496Z,16.60
2024-03-05T17:08:34.818Z,16.60
2024-03-05T17:11:11.903Z,16.60
2024-03-05T17:13:44.251Z,16.50
2024-03-05T17:16:14.212Z,16.40
2024-03-05T17:18:43.770Z,16.50
2024-03-05T17:21:14.857Z,16.50
2024-03-05T17:23:47.582Z,16.50
2024-03-05T17:26:18.757Z,16.40
2024-03-05T17:28:48.301Z,16.40
2024-03-05T17:31:17.768Z,16.40
2024-03-05T17:33:47.216Z,16.40
2024-03-05T17:36:16.657Z,16.40
2024-03-05T17:38:46.077Z,16.40
2024-03-05T17:41:15.744Z,16.30
2024-03-05T17:43:46.376Z,16.30
2024-03-05T17:46:15.825Z,16.20
2024-03-05T17:48:45.288Z,16.20
2024-03-05T17:51:16.279Z,16.20
2024-03-05T17:53:46.837Z,16.10
2024-03-05T17:56:18.428Z,16.10
2024-03-05T17:58:48.089Z,16.10
2024-03-05T18:01:17.686Z,16.00
2024-03-05T18:03:48.199Z,15.90
2024-03-05T18:06:18.808Z,16.00
2024-03-05T18:08:49.082Z,16.00
2024-03-05T18:11:18.743Z,15.90
2024-03-05T18:13:48.318Z,15.80
2024-03-05T18:16:18.047Z,15.80
2024-03-05T18:18:47.785Z,15.80
2024-03-05T18:21:17.618Z,15.70
2024-03-05T18:23:47.284Z,15.80
2024-03-05T18:26:16.817Z,15.80
2024-03-05T18:28:46.832Z,15.80
2024-03-05T18:31:17.474Z,15.80
2024-03-05T18:33:48.707Z,15.70
2024-03-05T18:36:20.907Z,15.70
2024-03-05T18:38:50.596Z,15.70
2024-03-05T18:41:20.296Z,15.60
2024-03-05T18:43:50.686Z,15.60
2024-03-05T18:46:21.707Z,15.50
2024-03-05T18:48:51.245Z,15.50
2024-03-05T18:51:20.749Z,15.50
2024-03-05T18:59:25.778Z,15.50
2024-03-05T19:01:55.223Z,15.40
2024-03-05T19:04:25.232Z,15.40
2024-03-05T19:06:55.994Z,15.40
2024-03-05T19:09:26.585Z,15.40
2024-03-05T19:11:56.240Z,15.40
2024-03-05T19:14:26.125Z,15.40
2024-03-05T19:16:57.219Z,15.40
2024-03-05T19:19:28.545Z,15.30
2024-03-05T19:22:00.138Z,15.30
2024-03-05T19:24:32.146Z,15.30
2024-03-05T19:27:02.214Z,15.30
2024-03-05T19:29:31.672Z,15.30
2024-03-05T19:32:01.789Z,15.30
2024-03-05T19:34:32.397Z,15.20
2024-03-05T19:37:02.547Z,15.20
2024-03-05T19:39:32.014Z,15.30
2024-03-05T19:42:01.445Z,15.30
2024-03-05T19:44:31.990Z,15.20
2024-03-05T19:47:01.821Z,15.30
2024-03-05T19:49:31.997Z,15.20
2024-03-05T19:52:02.599Z,15.20
2024-03-05T19:54:32.103Z,15.10
2024-03-05T19:57:01.560Z,15.10
2024-03-05T21:12:22.341Z,15.90
2024-03-05T21:14:51.758Z,16.00
2024-03-05T21:17:24.708Z,16.30
2024-03-05T21:19:54.238Z,16.80
2024-03-05T21:22:24.268Z,16.80
2024-03-05T21:24:54.200Z,16.80
2024-03-05T21:27:23.627Z,17.30
2024-03-05T21:29:53.312Z,17.30
2024-03-05T21:32:22.911Z,17.30
2024-03-05T21:34:52.373Z,17.20
2024-03-05T21:37:21.822Z,17.20
2024-03-05T21:39:51.327Z,17.20
2024-03-05T21:42:20.855Z,17.40
2024-03-05T21:44:50.245Z,17.40
2024-03-05T21:47:20.173Z,17.50
2024-03-05T21:49:49.746Z,17.50
2024-03-05T21:52:19.356Z,17.60
2024-03-05T21:54:48.939Z,17.80
2024-03-05T21:57:18.430Z,17.80
2024-03-05T21:59:47.929Z,18.00
2024-03-05T22:02:17.596Z,18.00
2024-03-05T22:04:47.189Z,18.10
2024-03-05T22:07:16.695Z,18.20
2024-03-05T22:09:46.141Z,18.30
